sensor_id;sensor_type;location;lat;lon;timestamp;pressure;altitude;pressure_sealevel;temperature;humidity
70555;BME280;58104;52.744;15.242;2023-05-09T00:01:31;101935.94;;;18.73;33.39
70555;BME280;58104;52.744;15.242;2023-05-09T00:03:58;101934.52;;;18.68;33.89
70555;BME280;58104;52.744;15.242;2023-05-09T00:06:23;101928.70;;;18.60;33.61
70555;BME280;58104;52.744;15.242;2023-05-09T00:08:48;101936.75;;;18.74;33.47
70555;BME280;58104;52.744;15.242;2023-05-09T00:11:13;101932.47;;;18.59;33.53
70555;BME280;58104;52.744;15.242;2023-05-09T00:13:38;101933.56;;;18.60;33.50
70555;BME280;58104;52.744;15.242;2023-05-09T00:16:04;101930.84;;;18.58;33.65
70555;BME280;58104;52.744;15.242;2023-05-09T00:18:29;101926.19;;;18.55;33.45
70555;BME280;58104;52.744;15.242;2023-05-09T00:20:55;101926.65;;;18.42;34.14
70555;BME280;58104;52.744;15.242;2023-05-09T00:23:20;101922.23;;;18.55;33.77
70555;BME280;58104;52.744;15.242;2023-05-09T00:25:45;101926.19;;;18.60;33.62
70555;BME280;58104;52.744;15.242;2023-05-09T00:28:10;101921.48;;;18.61;33.66
70555;BME280;58104;52.744;15.242;2023-05-09T00:30:36;101916.99;;;18.67;33.41
70555;BME280;58104;52.744;15.242;2023-05-09T00:33:01;101916.43;;;18.47;33.77
70555;BME280;58104;52.744;15.242;2023-05-09T00:35:26;101914.73;;;18.60;33.32
70555;BME280;58104;52.744;15.242;2023-05-09T00:37:51;101917.03;;;18.54;33.43
70555;BME280;58104;52.744;15.242;2023-05-09T00:40:17;101917.67;;;18.53;33.39
70555;BME280;58104;52.744;15.242;2023-05-09T00:42:43;101916.82;;;18.50;33.84
70555;BME280;58104;52.744;15.242;2023-05-09T00:45:09;101913.67;;;18.42;33.42
70555;BME280;58104;52.744;15.242;2023-05-09T00:47:34;101911.54;;;18.51;33.31
70555;BME280;58104;52.744;15.242;2023-05-09T00:50:00;101910.47;;;18.50;33.42
70555;BME280;58104;52.744;15.242;2023-05-09T00:52:25;101911.31;;;18.55;33.65
70555;BME280;58104;52.744;15.242;2023-05-09T00:54:50;101908.50;;;18.59;33.38
70555;BME280;58104;52.744;15.242;2023-05-09T00:57:15;101911.87;;;18.48;33.88
70555;BME280;58104;52.744;15.242;2023-05-09T00:59:40;101913.80;;;18.40;33.89
70555;BME280;58104;52.744;15.242;2023-05-09T01:02:05;101911.86;;;18.38;33.92
70555;BME280;58104;52.744;15.242;2023-05-09T01:04:32;101907.18;;;18.46;33.73
70555;BME280;58104;52.744;15.242;2023-05-09T01:07:03;101905.08;;;18.37;33.90
70555;BME280;58104;52.744;15.242;2023-05-09T01:09:27;101902.24;;;18.47;33.87
70555;BME280;58104;52.744;15.242;2023-05-09T01:11:54;101901.04;;;18.51;33.84
70555;BME280;58104;52.744;15.242;2023-05-09T01:14:18;101896.62;;;18.30;34.08
70555;BME280;58104;52.744;15.242;2023-05-09T01:16:41;101897.14;;;18.17;34.54
70555;BME280;58104;52.744;15.242;2023-05-09T01:19:15;101891.44;;;18.32;34.41
70555;BME280;58104;52.744;15.242;2023-05-09T01:21:30;101891.80;;;18.32;34.22
70555;BME280;58104;52.744;15.242;2023-05-09T01:24:12;101886.20;;;18.28;34.48
70555;BME280;58104;52.744;15.242;2023-05-09T01:26:26;101884.48;;;18.23;34.40
70555;BME280;58104;52.744;15.242;2023-05-09T01:28:59;;;;18.15;
70555;BME280;58104;52.744;15.242;2023-05-09T01:31:11;101880.20;;;18.24;34.20
70555;BME280;58104;52.744;15.242;2023-05-09T01:33:38;101881.37;;;18.26;33.84
70555;BME280;58104;52.744;15.242;2023-05-09T01:36:05;101884.02;;;18.25;33.98
70555;BME280;58104;52.744;15.242;2023-05-09T01:38:28;101881.93;;;18.34;33.85
70555;BME280;58104;52.744;15.242;2023-05-09T01:40:54;101882.16;;;18.20;34.30
70555;BME280;58104;52.744;15.242;2023-05-09T01:43:19;101873.63;;;18.07;34.11
70555;BME280;58104;52.744;15.242;2023-05-09T01:45:44;101875.44;;;18.15;34.18
70555;BME280;58104;52.744;15.242;2023-05-09T01:48:10;101878.43;;;18.20;34.18
70555;BME280;58104;52.744;15.242;2023-05-09T01:50:36;101875.88;;;18.03;34.21
70555;BME280;58104;52.744;15.242;2023-05-09T01:53:01;101872.85;;;18.17;34.07
70555;BME280;58104;52.744;15.242;2023-05-09T01:55:30;101869.94;;;18.03;34.24
70555;BME280;58104;52.744;15.242;2023-05-09T01:57:53;101870.13;;;18.06;34.44
70555;BME280;58104;52.744;15.242;2023-05-09T02:00:17;101870.64;;;18.05;34.34
70555;BME280;58104;52.744;15.242;2023-05-09T02:02:43;101870.81;;;18.11;34.28
70555;BME280;58104;52.744;15.242;2023-05-09T02:05:09;101874.36;;;18.17;34.21
70555;BME280;58104;52.744;15.242;2023-05-09T02:07:34;101871.21;;;18.20;34.23
70555;BME280;58104;52.744;15.242;2023-05-09T02:09:59;101869.89;;;18.15;34.07
70555;BME280;58104;52.744;15.242;2023-05-09T02:12:24;101868.77;;;18.02;34.75
70555;BME280;58104;52.744;15.242;2023-05-09T02:14:49;101864.70;;;18.03;34.36
70555;BME280;58104;52.744;15.242;2023-05-09T02:17:15;101862.39;;;18.00;34.40
70555;BME280;58104;52.744;15.242;2023-05-09T02:19:41;101865.16;;;18.00;34.31
70555;BME280;58104;52.744;15.242;2023-05-09T02:22:06;101859.18;;;18.04;34.62
70555;BME280;58104;52.744;15.242;2023-05-09T02:24:32;101855.30;;;18.08;34.08
70555;BME280;58104;52.744;15.242;2023-05-09T02:26:57;101852.49;;;18.03;34.25
70555;BME280;58104;52.744;15.242;2023-05-09T02:29:28;101852.51;;;18.10;33.97
70555;BME280;58104;52.744;15.242;2023-05-09T02:31:49;101851.20;;;17.98;34.06
70555;BME280;58104;52.744;15.242;2023-05-09T02:34:14;101851.67;;;17.80;34.25
70555;BME280;58104;52.744;15.242;2023-05-09T02:36:39;101847.31;;;17.89;34.31
70555;BME280;58104;52.744;15.242;2023-05-09T02:39:04;101847.21;;;17.87;33.89
70555;BME280;58104;52.744;15.242;2023-05-09T02:41:29;101849.04;;;17.92;33.82
70555;BME280;58104;52.744;15.242;2023-05-09T02:43:55;101846.71;;;17.92;33.96
70555;BME280;58104;52.744;15.242;2023-05-09T02:46:20;101846.18;;;17.79;33.93
70555;BME280;58104;52.744;15.242;2023-05-09T02:48:46;101842.28;;;17.81;33.99
70555;BME280;58104;52.744;15.242;2023-05-09T02:51:11;101842.40;;;17.87;33.82
70555;BME280;58104;52.744;15.242;2023-05-09T02:53:37;101837.57;;;17.87;33.73
70555;BME280;58104;52.744;15.242;2023-05-09T02:56:03;101836.31;;;17.92;33.71
70555;BME280;58104;52.744;15.242;2023-05-09T02:58:27;101839.89;;;17.82;33.71
70555;BME280;58104;52.744;15.242;2023-05-09T03:00:53;101840.27;;;17.85;33.85
70555;BME280;58104;52.744;15.242;2023-05-09T03:03:18;101840.83;;;17.72;33.82
70555;BME280;58104;52.744;15.242;2023-05-09T03:05:43;101836.46;;;17.71;34.06
70555;BME280;58104;52.744;15.242;2023-05-09T03:08:09;101837.41;;;17.75;33.81
70555;BME280;58104;52.744;15.242;2023-05-09T03:10:34;101840.92;;;17.79;33.89
70555;BME280;58104;52.744;15.242;2023-05-09T03:13:00;101837.51;;;17.84;33.73
70555;BME280;58104;52.744;15.242;2023-05-09T03:15:26;101837.46;;;17.81;33.78
70555;BME280;58104;52.744;15.242;2023-05-09T03:17:51;101840.43;;;17.59;33.95
70555;BME280;58104;52.744;15.242;2023-05-09T03:20:17;101840.60;;;17.69;33.65
70555;BME280;58104;52.744;15.242;2023-05-09T03:22:43;101840.78;;;17.59;33.76
70555;BME280;58104;52.744;15.242;2023-05-09T03:25:08;101841.21;;;17.37;33.60
70555;BME280;58104;52.744;15.242;2023-05-09T03:27:33;101843.96;;;17.45;32.82
70555;BME280;58104;52.744;15.242;2023-05-09T03:29:59;101838.69;;;17.14;32.82
70555;BME280;58104;52.744;15.242;2023-05-09T03:32:25;101840.15;;;17.20;32.95
70555;BME280;58104;52.744;15.242;2023-05-09T03:34:50;101840.67;;;17.33;32.42
70555;BME280;58104;52.744;15.242;2023-05-09T03:37:15;101843.13;;;17.20;32.54
70555;BME280;58104;52.744;15.242;2023-05-09T03:39:41;101845.38;;;17.33;32.49
70555;BME280;58104;52.744;15.242;2023-05-09T03:42:06;101846.49;;;17.30;32.81
70555;BME280;58104;52.744;15.242;2023-05-09T03:44:31;101847.15;;;17.42;32.37
70555;BME280;58104;52.744;15.242;2023-05-09T03:46:57;101845.53;;;17.28;32.52
70555;BME280;58104;52.744;15.242;2023-05-09T03:49:22;101841.30;;;17.37;32.52
70555;BME280;58104;52.744;15.242;2023-05-09T03:51:47;101842.95;;;17.40;33.17
70555;BME280;58104;52.744;15.242;2023-05-09T03:54:13;101843.94;;;17.12;32.75
70555;BME280;58104;52.744;15.242;2023-05-09T03:56:38;101850.41;;;17.33;32.44
70555;BME280;58104;52.744;15.242;2023-05-09T03:59:04;101849.18;;;17.27;32.44
70555;BME280;58104;52.744;15.242;2023-05-09T04:01:29;101848.78;;;17.19;32.51
70555;BME280;58104;52.744;15.242;2023-05-09T04:03:55;101846.21;;;17.14;32.61
70555;BME280;58104;52.744;15.242;2023-05-09T04:06:20;101846.19;;;17.24;33.01
70555;BME280;58104;52.744;15.242;2023-05-09T04:08:46;101847.51;;;17.24;32.84
70555;BME280;58104;52.744;15.242;2023-05-09T04:11:11;101846.76;;;17.31;32.55
70555;BME280;58104;52.744;15.242;2023-05-09T04:13:37;101841.57;;;17.41;32.63
70555;BME280;58104;52.744;15.242;2023-05-09T04:16:02;101844.75;;;17.46;32.69
70555;BME280;58104;52.744;15.242;2023-05-09T04:18:27;101837.87;;;17.38;32.45
70555;BME280;58104;52.744;15.242;2023-05-09T04:20:53;101833.85;;;17.45;32.41
70555;BME280;58104;52.744;15.242;2023-05-09T04:23:18;101833.06;;;17.24;32.66
70555;BME280;58104;52.744;15.242;2023-05-09T04:25:44;101835.98;;;17.34;32.27
70555;BME280;58104;52.744;15.242;2023-05-09T04:28:09;101832.59;;;17.33;32.45
70555;BME280;58104;52.744;15.242;2023-05-09T04:30:34;101832.83;;;17.07;33.25
70555;BME280;58104;52.744;15.242;2023-05-09T04:33:00;101832.12;;;17.11;32.73
70555;BME280;58104;52.744;15.242;2023-05-09T04:35:26;101835.40;;;17.05;32.50
70555;BME280;58104;52.744;15.242;2023-05-09T04:37:51;101836.48;;;17.12;32.70
70555;BME280;58104;52.744;15.242;2023-05-09T04:40:17;101840.64;;;17.22;32.82
70555;BME280;58104;52.744;15.242;2023-05-09T04:42:42;101840.06;;;17.40;32.62
70555;BME280;58104;52.744;15.242;2023-05-09T04:45:08;101841.29;;;17.21;32.40
70555;BME280;58104;52.744;15.242;2023-05-09T04:47:33;101837.04;;;17.37;32.57
70555;BME280;58104;52.744;15.242;2023-05-09T04:49:58;101835.64;;;17.47;32.52
70555;BME280;58104;52.744;15.242;2023-05-09T04:52:24;101837.15;;;17.08;31.98
70555;BME280;58104;52.744;15.242;2023-05-09T04:54:49;101842.77;;;17.17;32.53
70555;BME280;58104;52.744;15.242;2023-05-09T04:57:15;101846.94;;;17.54;32.26
70555;BME280;58104;52.744;15.242;2023-05-09T04:59:40;101849.88;;;17.48;31.88
70555;BME280;58104;52.744;15.242;2023-05-09T05:02:06;101850.54;;;17.63;32.14
70555;BME280;58104;52.744;15.242;2023-05-09T05:04:32;101853.13;;;17.56;32.13
70555;BME280;58104;52.744;15.242;2023-05-09T05:06:57;101853.01;;;17.64;31.89
70555;BME280;58104;52.744;15.242;2023-05-09T05:09:23;101852.53;;;17.59;31.83
70555;BME280;58104;52.744;15.242;2023-05-09T05:11:48;101852.22;;;17.63;31.68
70555;BME280;58104;52.744;15.242;2023-05-09T05:14:14;101854.50;;;17.63;31.39
70555;BME280;58104;52.744;15.242;2023-05-09T05:16:39;101852.47;;;17.66;31.25
70555;BME280;58104;52.744;15.242;2023-05-09T05:19:04;101855.89;;;17.70;31.32
70555;BME280;58104;52.744;15.242;2023-05-09T05:21:30;101852.60;;;17.62;31.29
70555;BME280;58104;52.744;15.242;2023-05-09T05:23:55;101853.64;;;17.58;31.44
70555;BME280;58104;52.744;15.242;2023-05-09T05:26:20;101854.52;;;17.56;31.54
70555;BME280;58104;52.744;15.242;2023-05-09T05:28:46;101852.65;;;17.46;31.66
70555;BME280;58104;52.744;15.242;2023-05-09T05:31:12;101854.70;;;17.61;31.60
70555;BME280;58104;52.744;15.242;2023-05-09T05:33:37;101853.25;;;17.57;31.38
70555;BME280;58104;52.744;15.242;2023-05-09T05:36:03;101849.03;;;17.79;31.48
70555;BME280;58104;52.744;15.242;2023-05-09T05:38:27;101858.49;;;17.68;31.48
70555;BME280;58104;52.744;15.242;2023-05-09T05:40:53;101850.66;;;17.78;31.27
70555;BME280;58104;52.744;15.242;2023-05-09T05:43:18;101850.16;;;17.83;31.11
70555;BME280;58104;52.744;15.242;2023-05-09T05:45:43;101849.66;;;17.83;31.23
70555;BME280;58104;52.744;15.242;2023-05-09T05:48:09;101843.67;;;17.77;31.38
70555;BME280;58104;52.744;15.242;2023-05-09T05:50:34;101842.95;;;17.86;31.32
70555;BME280;58104;52.744;15.242;2023-05-09T05:52:59;101843.82;;;17.80;31.29
70555;BME280;58104;52.744;15.242;2023-05-09T05:55:25;101846.22;;;17.80;31.69
70555;BME280;58104;52.744;15.242;2023-05-09T05:57:50;101841.00;;;17.69;31.69
70555;BME280;58104;52.744;15.242;2023-05-09T06:00:16;101844.03;;;17.67;31.77
70555;BME280;58104;52.744;15.242;2023-05-09T06:02:42;101840.51;;;17.62;31.72
70555;BME280;58104;52.744;15.242;2023-05-09T06:05:08;101837.88;;;17.78;31.62
70555;BME280;58104;52.744;15.242;2023-05-09T06:07:32;101831.72;;;17.86;31.74
70555;BME280;58104;52.744;15.242;2023-05-09T06:09:58;101828.83;;;17.88;31.54
70555;BME280;58104;52.744;15.242;2023-05-09T06:12:23;101828.65;;;17.79;31.71
70555;BME280;58104;52.744;15.242;2023-05-09T06:14:49;101822.80;;;17.87;31.67
70555;BME280;58104;52.744;15.242;2023-05-09T06:17:15;101830.12;;;17.83;31.69
70555;BME280;58104;52.744;15.242;2023-05-09T06:19:40;101821.46;;;17.88;31.86
70555;BME280;58104;52.744;15.242;2023-05-09T06:22:05;101824.62;;;17.83;31.86
70555;BME280;58104;52.744;15.242;2023-05-09T06:24:31;101829.92;;;17.92;31.75
70555;BME280;58104;52.744;15.242;2023-05-09T06:26:56;101821.97;;;17.90;31.79
70555;BME280;58104;52.744;15.242;2023-05-09T06:29:22;101822.06;;;17.93;31.88
70555;BME280;58104;52.744;15.242;2023-05-09T06:31:47;101822.48;;;17.91;31.92
70555;BME280;58104;52.744;15.242;2023-05-09T06:34:12;101819.59;;;17.98;31.84
70555;BME280;58104;52.744;15.242;2023-05-09T06:36:38;101822.47;;;17.96;32.01
70555;BME280;58104;52.744;15.242;2023-05-09T06:39:03;101805.22;;;18.00;32.01
70555;BME280;58104;52.744;15.242;2023-05-09T06:41:28;101806.65;;;17.98;32.10
70555;BME280;58104;52.744;15.242;2023-05-09T06:43:54;101799.44;;;18.03;32.08
70555;BME280;58104;52.744;15.242;2023-05-09T06:46:19;101799.16;;;17.78;32.48
70555;BME280;58104;52.744;15.242;2023-05-09T06:48:44;101797.38;;;17.79;32.44
70555;BME280;58104;52.744;15.242;2023-05-09T06:51:09;101788.25;;;17.95;32.15
70555;BME280;58104;52.744;15.242;2023-05-09T06:53:35;101785.82;;;17.99;31.95
70555;BME280;58104;52.744;15.242;2023-05-09T06:56:00;101785.76;;;17.94;31.73
70555;BME280;58104;52.744;15.242;2023-05-09T06:58:26;101783.16;;;17.91;31.96
70555;BME280;58104;52.744;15.242;2023-05-09T07:00:51;101781.01;;;17.88;31.81
70555;BME280;58104;52.744;15.242;2023-05-09T07:03:16;101776.04;;;17.99;31.74
70555;BME280;58104;52.744;15.242;2023-05-09T07:05:42;101778.98;;;17.85;31.87
70555;BME280;58104;52.744;15.242;2023-05-09T07:08:07;101778.53;;;17.88;31.54
70555;BME280;58104;52.744;15.242;2023-05-09T07:10:33;101774.45;;;17.91;31.22
70555;BME280;58104;52.744;15.242;2023-05-09T07:12:58;101774.23;;;17.94;31.48
70555;BME280;58104;52.744;15.242;2023-05-09T07:15:23;101774.12;;;17.96;31.32
70555;BME280;58104;52.744;15.242;2023-05-09T07:17:49;101773.34;;;18.15;30.87
70555;BME280;58104;52.744;15.242;2023-05-09T07:20:14;101769.75;;;17.95;30.69
70555;BME280;58104;52.744;15.242;2023-05-09T07:22:40;101771.58;;;18.39;30.76
70555;BME280;58104;52.744;15.242;2023-05-09T07:25:06;101759.75;;;18.12;30.41
70555;BME280;58104;52.744;15.242;2023-05-09T07:27:30;101764.18;;;18.44;30.07
70555;BME280;58104;52.744;15.242;2023-05-09T07:29:56;101752.35;;;18.48;29.81
70555;BME280;58104;52.744;15.242;2023-05-09T07:32:21;101747.90;;;18.60;29.74
70555;BME280;58104;52.744;15.242;2023-05-09T07:34:47;101782.41;;;18.56;29.46
70555;BME280;58104;52.744;15.242;2023-05-09T07:37:12;101762.21;;;18.66;28.88
70555;BME280;58104;52.744;15.242;2023-05-09T07:39:38;101753.59;;;18.62;28.81
70555;BME280;58104;52.744;15.242;2023-05-09T07:42:03;101753.64;;;18.65;28.45
70555;BME280;58104;52.744;15.242;2023-05-09T07:44:28;101743.50;;;18.82;28.50
70555;BME280;58104;52.744;15.242;2023-05-09T07:46:54;101733.07;;;18.68;28.48
70555;BME280;58104;52.744;15.242;2023-05-09T07:49:19;101737.54;;;18.70;28.51
70555;BME280;58104;52.744;15.242;2023-05-09T07:51:44;101732.11;;;18.56;28.73
70555;BME280;58104;52.744;15.242;2023-05-09T07:54:10;101719.35;;;18.97;27.86
70555;BME280;58104;52.744;15.242;2023-05-09T07:56:35;101731.18;;;18.98;28.07
70555;BME280;58104;52.744;15.242;2023-05-09T07:59:01;101720.65;;;18.82;28.35
70555;BME280;58104;52.744;15.242;2023-05-09T08:01:26;101721.06;;;18.84;28.12
70555;BME280;58104;52.744;15.242;2023-05-09T08:03:52;101713.51;;;18.87;28.21
70555;BME280;58104;52.744;15.242;2023-05-09T08:06:17;101724.09;;;18.96;28.03
70555;BME280;58104;52.744;15.242;2023-05-09T08:08:43;101710.06;;;19.09;27.81
70555;BME280;58104;52.744;15.242;2023-05-09T08:11:08;101707.81;;;19.04;27.55
70555;BME280;58104;52.744;15.242;2023-05-09T08:13:34;101709.62;;;19.15;27.95
70555;BME280;58104;52.744;15.242;2023-05-09T08:16:00;101697.69;;;19.10;27.55
70555;BME280;58104;52.744;15.242;2023-05-09T08:18:25;101711.26;;;19.06;27.72
70555;BME280;58104;52.744;15.242;2023-05-09T08:20:50;101701.74;;;19.26;27.58
70555;BME280;58104;52.744;15.242;2023-05-09T08:23:15;101700.16;;;19.22;27.33
70555;BME280;58104;52.744;15.242;2023-05-09T08:25:41;101702.04;;;19.31;27.29
70555;BME280;58104;52.744;15.242;2023-05-09T08:28:06;101705.26;;;19.36;27.25
70555;BME280;58104;52.744;15.242;2023-05-09T08:30:32;101718.14;;;19.38;27.28
70555;BME280;58104;52.744;15.242;2023-05-09T08:32:57;101688.24;;;19.49;26.65
70555;BME280;58104;52.744;15.242;2023-05-09T08:35:22;101683.43;;;19.48;26.99
70555;BME280;58104;52.744;15.242;2023-05-09T08:37:48;101687.14;;;19.72;26.46
70555;BME280;58104;52.744;15.242;2023-05-09T08:40:14;101679.74;;;19.70;26.68
70555;BME280;58104;52.744;15.242;2023-05-09T08:42:39;101675.85;;;19.73;26.63
70555;BME280;58104;52.744;15.242;2023-05-09T08:45:08;101675.03;;;19.82;26.66
70555;BME280;58104;52.744;15.242;2023-05-09T08:47:34;101668.41;;;19.96;26.44
70555;BME280;58104;52.744;15.242;2023-05-09T08:49:55;101671.79;;;19.93;26.47
70555;BME280;58104;52.744;15.242;2023-05-09T08:52:21;101667.98;;;19.94;26.49
70555;BME280;58104;52.744;15.242;2023-05-09T08:54:46;101659.07;;;19.96;26.55
70555;BME280;58104;52.744;15.242;2023-05-09T08:57:12;101670.46;;;19.97;26.52
70555;BME280;58104;52.744;15.242;2023-05-09T08:59:41;101681.99;;;19.92;26.27
70555;BME280;58104;52.744;15.242;2023-05-09T09:02:05;101661.40;;;19.86;26.37
70555;BME280;58104;52.744;15.242;2023-05-09T09:04:27;101651.19;;;19.93;26.57
70555;BME280;58104;52.744;15.242;2023-05-09T09:06:53;101655.93;;;20.12;25.97
70555;BME280;58104;52.744;15.242;2023-05-09T09:09:19;101650.13;;;20.12;25.93
70555;BME280;58104;52.744;15.242;2023-05-09T09:11:44;101641.53;;;20.25;25.95
70555;BME280;58104;52.744;15.242;2023-05-09T09:14:11;101640.52;;;20.31;25.75
70555;BME280;58104;52.744;15.242;2023-05-09T09:16:35;101638.46;;;20.39;25.82
70555;BME280;58104;52.744;15.242;2023-05-09T09:19:00;101635.06;;;20.42;25.42
70555;BME280;58104;52.744;15.242;2023-05-09T09:21:25;101644.69;;;20.41;25.78
70555;BME280;58104;52.744;15.242;2023-05-09T09:23:53;101629.22;;;20.47;25.72
70555;BME280;58104;52.744;15.242;2023-05-09T09:26:16;101642.02;;;20.46;25.46
70555;BME280;58104;52.744;15.242;2023-05-09T09:28:42;101633.21;;;20.52;25.50
70555;BME280;58104;52.744;15.242;2023-05-09T09:33:34;101622.57;;;20.45;25.49
70555;BME280;58104;52.744;15.242;2023-05-09T09:35:58;101614.55;;;20.52;25.91
70555;BME280;58104;52.744;15.242;2023-05-09T09:38:24;101615.01;;;20.60;25.76
70555;BME280;58104;52.744;15.242;2023-05-09T09:40:52;101630.09;;;20.55;25.44
70555;BME280;58104;52.744;15.242;2023-05-09T09:43:15;101611.24;;;20.49;25.43
70555;BME280;58104;52.744;15.242;2023-05-09T09:45:41;101607.95;;;20.48;25.83
70555;BME280;58104;52.744;15.242;2023-05-09T09:48:06;101601.81;;;20.56;25.79
70555;BME280;58104;52.744;15.242;2023-05-09T09:50:31;101606.15;;;20.76;26.15
70555;BME280;58104;52.744;15.242;2023-05-09T09:52:56;101592.08;;;20.69;25.80
70555;BME280;58104;52.744;15.242;2023-05-09T09:55:23;101595.10;;;20.59;25.64
70555;BME280;58104;52.744;15.242;2023-05-09T09:57:48;101603.06;;;20.75;25.44
70555;BME280;58104;52.744;15.242;2023-05-09T10:00:14;101583.30;;;20.80;26.15
70555;BME280;58104;52.744;15.242;2023-05-09T10:02:47;101583.05;;;20.77;26.26
70555;BME280;58104;52.744;15.242;2023-05-09T10:05:07;101581.45;;;20.82;25.81
70555;BME280;58104;52.744;15.242;2023-05-09T10:07:34;101578.47;;;20.92;26.22
70555;BME280;58104;52.744;15.242;2023-05-09T10:09:54;101579.30;;;20.98;26.26
70555;BME280;58104;52.744;15.242;2023-05-09T10:12:20;101588.17;;;21.01;26.27
70555;BME280;58104;52.744;15.242;2023-05-09T10:14:46;101576.62;;;21.03;26.21
70555;BME280;58104;52.744;15.242;2023-05-09T10:17:13;101568.53;;;20.84;25.41
70555;BME280;58104;52.744;15.242;2023-05-09T10:19:37;101564.04;;;21.08;26.23
70555;BME280;58104;52.744;15.242;2023-05-09T10:22:03;101564.52;;;21.19;26.06
70555;BME280;58104;52.744;15.242;2023-05-09T10:24:31;101562.41;;;21.12;26.01
70555;BME280;58104;52.744;15.242;2023-05-09T10:26:59;101559.69;;;21.19;25.06
70555;BME280;58104;52.744;15.242;2023-05-09T10:29:23;101550.26;;;21.12;25.79
70555;BME280;58104;52.744;15.242;2023-05-09T10:31:44;101557.17;;;21.28;25.95
70555;BME280;58104;52.744;15.242;2023-05-09T10:34:09;101548.32;;;21.21;25.96
70555;BME280;58104;52.744;15.242;2023-05-09T10:36:34;101545.82;;;21.18;26.14
70555;BME280;58104;52.744;15.242;2023-05-09T10:39:00;101539.11;;;21.12;26.28
70555;BME280;58104;52.744;15.242;2023-05-09T10:41:25;101532.64;;;21.04;26.31
70555;BME280;58104;52.744;15.242;2023-05-09T10:43:50;101535.19;;;21.13;26.42
70555;BME280;58104;52.744;15.242;2023-05-09T10:46:16;101534.62;;;21.09;26.27
70555;BME280;58104;52.744;15.242;2023-05-09T10:48:41;101532.49;;;21.04;26.57
70555;BME280;58104;52.744;15.242;2023-05-09T10:51:07;101532.86;;;21.16;26.47
70555;BME280;58104;52.744;15.242;2023-05-09T10:53:40;101520.90;;;21.13;26.40
70555;BME280;58104;52.744;15.242;2023-05-09T10:55:58;101519.34;;;21.26;26.35
70555;BME280;58104;52.744;15.242;2023-05-09T10:58:25;101536.24;;;21.34;26.20
70555;BME280;58104;52.744;15.242;2023-05-09T11:00:49;101516.95;;;21.38;26.13
70555;BME280;58104;52.744;15.242;2023-05-09T11:03:14;101512.26;;;21.45;25.82
70555;BME280;58104;52.744;15.242;2023-05-09T11:05:39;101508.32;;;21.42;25.85
70555;BME280;58104;52.744;15.242;2023-05-09T11:10:40;101500.20;;;21.73;25.85
70555;BME280;58104;52.744;15.242;2023-05-09T11:12:57;101495.22;;;21.68;25.92
70555;BME280;58104;52.744;15.242;2023-05-09T11:15:21;101492.38;;;21.65;25.97
70555;BME280;58104;52.744;15.242;2023-05-09T11:17:50;101499.41;;;21.86;25.75
70555;BME280;58104;52.744;15.242;2023-05-09T11:20:12;101480.98;;;21.81;25.72
70555;BME280;58104;52.744;15.242;2023-05-09T11:22:39;101479.32;;;21.84;25.77
70555;BME280;58104;52.744;15.242;2023-05-09T11:25:04;101481.17;;;21.98;25.69
70555;BME280;58104;52.744;15.242;2023-05-09T11:27:28;101478.51;;;21.90;25.67
70555;BME280;58104;52.744;15.242;2023-05-09T11:29:54;101471.38;;;21.87;25.60
70555;BME280;58104;52.744;15.242;2023-05-09T11:32:20;101471.41;;;22.05;25.50
70555;BME280;58104;52.744;15.242;2023-05-09T11:34:45;101466.67;;;22.04;25.58
70555;BME280;58104;52.744;15.242;2023-05-09T11:37:10;101462.62;;;22.05;25.57
70555;BME280;58104;52.744;15.242;2023-05-09T11:39:35;101456.43;;;21.94;25.52
70555;BME280;58104;52.744;15.242;2023-05-09T11:42:00;101445.05;;;21.89;25.52
70555;BME280;58104;52.744;15.242;2023-05-09T11:44:27;101447.82;;;22.01;25.40
70555;BME280;58104;52.744;15.242;2023-05-09T11:46:51;101438.32;;;22.09;25.35
70555;BME280;58104;52.744;15.242;2023-05-09T11:49:16;101441.12;;;22.04;25.29
70555;BME280;58104;52.744;15.242;2023-05-09T11:51:42;101442.47;;;22.20;25.21
70555;BME280;58104;52.744;15.242;2023-05-09T11:54:08;101445.44;;;22.12;25.36
70555;BME280;58104;52.744;15.242;2023-05-09T11:56:33;101442.07;;;22.05;25.22
70555;BME280;58104;52.744;15.242;2023-05-09T11:58:58;101427.98;;;22.16;24.84
70555;BME280;58104;52.744;15.242;2023-05-09T12:01:23;101444.14;;;22.15;25.10
70555;BME280;58104;52.744;15.242;2023-05-09T12:03:49;101420.51;;;22.20;25.03
70555;BME280;58104;52.744;15.242;2023-05-09T12:06:15;101413.07;;;22.21;24.99
70555;BME280;58104;52.744;15.242;2023-05-09T12:08:39;101445.34;;;22.24;24.73
70555;BME280;58104;52.744;15.242;2023-05-09T12:11:09;101405.44;;;22.18;24.97
70555;BME280;58104;52.744;15.242;2023-05-09T12:13:30;101395.13;;;22.26;24.96
70555;BME280;58104;52.744;15.242;2023-05-09T12:15:59;101394.51;;;22.13;24.84
70555;BME280;58104;52.744;15.242;2023-05-09T12:18:22;101387.03;;;22.21;24.91
70555;BME280;58104;52.744;15.242;2023-05-09T12:20:47;101379.35;;;22.36;24.81
70555;BME280;58104;52.744;15.242;2023-05-09T12:23:12;101365.61;;;22.22;24.99
70555;BME280;58104;52.744;15.242;2023-05-09T12:25:37;101386.80;;;22.31;24.97
70555;BME280;58104;52.744;15.242;2023-05-09T12:28:03;101373.70;;;22.22;24.92
70555;BME280;58104;52.744;15.242;2023-05-09T12:30:28;101374.67;;;22.25;25.12
70555;BME280;58104;52.744;15.242;2023-05-09T12:32:54;101373.20;;;22.10;24.96
70555;BME280;58104;52.744;15.242;2023-05-09T12:35:20;101367.37;;;22.06;24.92